createdAt,value
2018-03-04T00:00:10.368Z,41.45
2018-03-04T00:01:10.355Z,41.64
2018-03-04T00:02:10.342Z,41.55
2018-03-04T00:03:10.342Z,41.55
2018-03-04T00:04:10.320Z,41.64
2018-03-04T00:05:10.308Z,41.64
2018-03-04T00:06:10.295Z,41.45
2018-03-04T00:07:10.286Z,41.45
2018-03-04T00:08:10.304Z,41.45
2018-03-04T00:09:10.269Z,41.45
2018-03-04T00:10:10.251Z,41.45
2018-03-04T00:11:10.239Z,41.64
2018-03-04T00:12:10.226Z,41.45
2018-03-04T00:13:10.219Z,41.45
2018-03-04T00:14:10.219Z,41.55
2018-03-04T00:15:10.191Z,41.55
2018-03-04T00:16:10.180Z,41.74
2018-03-04T00:17:10.168Z,41.55
2018-03-04T00:18:10.156Z,41.55
2018-03-04T00:19:10.140Z,41.74
2018-03-04T00:20:10.397Z,41.64
2018-03-04T00:21:10.121Z,41.45
2018-03-04T00:22:10.110Z,41.55
2018-03-04T00:23:10.098Z,41.55
2018-03-04T00:24:10.087Z,41.45
2018-03-04T00:25:10.077Z,41.45
2018-03-04T00:26:10.073Z,41.55
2018-03-04T00:27:10.051Z,41.64
2018-03-04T00:28:10.039Z,41.64
2018-03-04T00:29:10.029Z,41.74
2018-03-04T00:30:10.017Z,41.74
2018-03-04T00:31:10.267Z,41.55
2018-03-04T00:32:09.993Z,41.55
2018-03-04T00:33:09.993Z,41.64
2018-03-04T00:34:09.969Z,41.55
2018-03-04T00:35:09.954Z,41.64
2018-03-04T00:36:09.960Z,41.74
2018-03-04T00:37:10.182Z,41.64
2018-03-04T00:38:09.923Z,41.64
2018-03-04T00:39:09.909Z,41.64
2018-03-04T00:40:09.900Z,41.55
2018-03-04T00:41:09.885Z,41.55
2018-03-04T00:42:09.874Z,41.64
2018-03-04T00:43:09.872Z,41.64
2018-03-04T00:44:09.849Z,41.55
2018-03-04T00:45:09.842Z,41.74
2018-03-04T00:46:09.827Z,41.64
2018-03-04T00:47:09.819Z,41.74
2018-03-04T00:48:09.818Z,41.64
2018-03-04T00:49:09.790Z,41.64
2018-03-04T00:50:09.779Z,41.64
2018-03-04T00:51:09.768Z,41.64
2018-03-04T00:52:09.754Z,41.74
2018-03-04T00:53:09.745Z,41.53
2018-03-04T00:54:09.748Z,41.53
2018-03-04T00:55:09.721Z,41.64
2018-03-04T00:56:09.708Z,41.64
2018-03-04T00:57:09.700Z,41.62
2018-03-04T00:58:09.684Z,41.62
2018-03-04T00:59:09.677Z,41.74
2018-03-04T01:00:09.688Z,41.72
2018-03-04T01:01:09.649Z,41.64
2018-03-04T01:02:09.637Z,41.55
2018-03-04T01:03:09.626Z,41.55
2018-03-04T01:04:09.617Z,41.62
2018-03-04T01:05:09.617Z,41.55
2018-03-04T01:06:09.588Z,41.74
2018-03-04T01:07:09.577Z,41.55
2018-03-04T01:08:09.565Z,41.62
2018-03-04T01:09:09.555Z,41.62
2018-03-04T01:10:09.546Z,41.55
2018-03-04T01:11:09.546Z,41.53
2018-03-04T01:12:09.518Z,41.64
2018-03-04T01:13:09.505Z,41.62
2018-03-04T01:14:09.494Z,41.64
2018-03-04T01:15:09.490Z,41.62
2018-03-04T01:16:09.469Z,41.62
2018-03-04T01:17:09.473Z,41.62
2018-03-04T01:18:09.447Z,41.64
2018-03-04T01:19:09.433Z,41.62
2018-03-04T01:20:09.424Z,41.53
2018-03-04T01:21:09.409Z,41.53
2018-03-04T01:22:09.398Z,41.43
2018-03-04T01:23:09.397Z,41.53
2018-03-04T01:24:09.374Z,41.53
2018-03-04T01:25:09.364Z,41.53
2018-03-04T01:26:09.351Z,41.45
2018-03-04T01:27:09.339Z,41.53
2018-03-04T01:28:09.358Z,41.55
2018-03-04T01:29:09.315Z,41.43
2018-03-04T01:30:09.303Z,41.72
2018-03-04T01:31:09.291Z,41.43
2018-03-04T01:32:09.278Z,41.43
2018-03-04T01:33:09.271Z,41.62
2018-03-04T01:34:09.273Z,41.72
2018-03-04T01:35:09.254Z,41.82
2018-03-04T01:36:09.230Z,41.53
2018-03-04T01:37:09.217Z,41.43
2018-03-04T01:38:09.211Z,41.82
2018-03-04T01:39:09.201Z,41.53
2018-03-04T01:40:09.193Z,41.53
2018-03-04T01:41:09.171Z,41.43
2018-03-04T01:42:09.160Z,41.62
2018-03-04T01:43:09.149Z,41.62
2018-03-04T01:44:09.135Z,41.62
2018-03-04T01:45:09.137Z,41.43
2018-03-04T01:46:09.115Z,41.43
2018-03-04T01:47:09.142Z,41.62
2018-03-04T01:48:09.087Z,41.62
2018-03-04T01:49:09.076Z,41.53
2018-03-04T01:50:09.075Z,41.43
2018-03-04T01:51:09.052Z,41.62
2018-03-04T01:52:09.039Z,41.62
2018-03-04T01:53:09.030Z,41.53
2018-03-04T01:54:09.014Z,41.62
2018-03-04T01:55:09.020Z,41.43
2018-03-04T01:56:08.992Z,41.43
2018-03-04T01:57:08.979Z,41.43
2018-03-04T01:58:08.966Z,41.62
2018-03-04T01:59:08.956Z,41.62
2018-03-04T02:00:08.945Z,41.91
2018-03-04T02:01:08.941Z,41.91
2018-03-04T02:02:08.921Z,41.62
2018-03-04T02:03:08.908Z,41.91
2018-03-04T02:04:08.895Z,41.82
2018-03-04T02:05:08.886Z,41.72
2018-03-04T02:06:08.887Z,41.72
2018-03-04T02:07:08.860Z,41.62
2018-03-04T02:08:08.845Z,41.72
2018-03-04T02:09:08.835Z,41.62
2018-03-04T02:10:08.823Z,41.62
2018-03-04T02:11:08.812Z,41.53
2018-03-04T02:12:08.809Z,41.53
2018-03-04T02:13:08.786Z,41.53
2018-03-04T02:14:08.775Z,41.62
2018-03-04T02:15:08.762Z,41.53
2018-03-04T02:16:08.750Z,41.62
2018-03-04T02:17:08.749Z,41.53
2018-03-04T02:18:08.726Z,41.43
2018-03-04T02:19:08.714Z,41.62
2018-03-04T02:20:08.702Z,41.53
2018-03-04T02:21:08.690Z,41.82
2018-03-04T02:22:08.690Z,41.82
2018-03-04T02:23:08.668Z,41.53
2018-03-04T02:24:08.654Z,41.43
2018-03-04T02:25:08.641Z,41.43
2018-03-04T02:26:08.630Z,41.72
2018-03-04T02:27:08.618Z,41.53
2018-03-04T02:28:08.616Z,41.43
2018-03-04T02:29:08.595Z,41.53
2018-03-04T02:30:08.591Z,41.43
2018-03-04T02:31:08.569Z,41.43
2018-03-04T02:32:08.558Z,41.62
2018-03-04T02:33:08.561Z,41.43
2018-03-04T02:34:08.534Z,41.43
2018-03-04T02:35:08.521Z,41.53
2018-03-04T02:36:08.509Z,41.53
2018-03-04T02:37:08.496Z,41.53
2018-03-04T02:38:08.484Z,41.53
2018-03-04T02:39:08.486Z,41.53
2018-03-04T02:40:08.461Z,41.72
2018-03-04T02:41:08.447Z,41.62
2018-03-04T02:42:08.436Z,41.53
2018-03-04T02:43:08.427Z,41.53
2018-03-04T02:44:08.424Z,41.62
2018-03-04T02:45:08.401Z,41.43
2018-03-04T02:46:08.390Z,41.53
2018-03-04T02:47:08.381Z,41.72
2018-03-04T02:48:08.363Z,41.82
2018-03-04T02:49:08.367Z,41.91
2018-03-04T02:50:08.339Z,41.62
2018-03-04T02:51:08.327Z,41.91
2018-03-04T02:52:08.316Z,41.82
2018-03-04T02:53:08.304Z,41.62
2018-03-04T02:54:08.290Z,41.62
2018-03-04T02:55:08.290Z,41.72
2018-03-04T02:56:08.265Z,41.82
2018-03-04T02:57:08.254Z,41.72
2018-03-04T02:58:08.243Z,41.82
2018-03-04T02:59:08.230Z,41.62
2018-03-04T03:00:08.467Z,41.82
2018-03-04T03:01:08.206Z,41.62
2018-03-04T03:02:08.194Z,41.62
2018-03-04T03:03:08.183Z,41.82
2018-03-04T03:04:08.172Z,41.82
2018-03-04T03:05:08.157Z,41.62
2018-03-04T03:06:08.155Z,41.53
2018-03-04T03:07:08.137Z,41.82
2018-03-04T03:08:08.122Z,41.53
2018-03-04T03:09:08.109Z,41.62
2018-03-04T03:10:08.096Z,41.91
2018-03-04T03:11:08.095Z,41.82
2018-03-04T03:12:08.072Z,41.91
2018-03-04T03:13:08.059Z,41.62
2018-03-04T03:14:08.048Z,41.91
2018-03-04T03:15:08.038Z,41.62
2018-03-04T03:16:08.033Z,41.72
2018-03-04T03:17:08.024Z,41.82
2018-03-04T03:18:07.999Z,41.62
2018-03-04T03:19:07.987Z,41.82
2018-03-04T03:20:07.975Z,41.91
2018-03-04T03:21:07.963Z,41.62
2018-03-04T03:22:07.961Z,41.82
2018-03-04T03:23:07.937Z,41.82
2018-03-04T03:24:07.925Z,41.62
2018-03-04T03:25:07.914Z,41.82
2018-03-04T03:26:07.901Z,41.53
2018-03-04T03:27:07.904Z,41.62
2018-03-04T03:28:07.877Z,41.82
2018-03-04T03:29:07.866Z,41.53
2018-03-04T03:30:07.854Z,41.91
2018-03-04T03:31:07.843Z,41.62
2018-03-04T03:32:07.828Z,41.72
2018-03-04T03:33:07.826Z,41.62
2018-03-04T03:34:07.804Z,41.82
2018-03-04T03:35:07.794Z,41.82
2018-03-04T03:36:07.780Z,41.72
2018-03-04T03:37:07.767Z,41.82
2018-03-04T03:38:07.779Z,41.72
2018-03-04T03:39:07.744Z,41.82
2018-03-04T03:40:07.731Z,41.72
2018-03-04T03:41:07.718Z,41.72
2018-03-04T03:42:07.707Z,42.00
2018-03-04T03:43:07.696Z,41.72
2018-03-04T03:44:07.694Z,41.62
2018-03-04T03:45:07.671Z,41.72
2018-03-04T03:46:07.659Z,41.72
2018-03-04T03:47:07.646Z,41.82
2018-03-04T03:48:07.633Z,41.82
2018-03-04T03:49:07.631Z,41.72
2018-03-04T03:50:07.610Z,41.82
2018-03-04T03:51:07.597Z,41.62
2018-03-04T03:52:07.584Z,41.62
2018-03-04T03:53:07.573Z,41.72
2018-03-04T03:54:07.576Z,41.62
2018-03-04T03:55:07.550Z,41.62
2018-03-04T03:56:07.540Z,41.62
2018-03-04T03:57:07.524Z,41.82
2018-03-04T03:58:07.512Z,41.82
2018-03-04T03:59:07.501Z,41.72
2018-03-04T04:00:07.498Z,41.82
2018-03-04T04:01:07.477Z,41.79
2018-03-04T04:02:07.464Z,41.82
2018-03-04T04:03:07.451Z,41.82
2018-03-04T04:04:07.438Z,41.82
2018-03-04T04:05:07.692Z,41.82
2018-03-04T04:06:07.414Z,41.82
2018-03-04T04:07:07.402Z,41.82
2018-03-04T04:08:07.390Z,41.72
2018-03-04T04:09:07.377Z,41.62
2018-03-04T04:10:07.366Z,41.62
2018-03-04T04:11:07.363Z,41.60
2018-03-04T04:12:07.341Z,41.91
2018-03-04T04:13:07.328Z,41.50
2018-03-04T04:14:07.316Z,41.89
2018-03-04T04:15:07.305Z,41.70
2018-03-04T04:16:07.301Z,41.82
2018-03-04T04:17:07.280Z,41.72
2018-03-04T04:18:07.267Z,41.72
2018-03-04T04:19:07.256Z,41.82
2018-03-04T04:20:07.242Z,41.99
2018-03-04T04:21:07.246Z,41.82
2018-03-04T04:22:07.219Z,41.91
2018-03-04T04:23:07.207Z,41.62
2018-03-04T04:24:07.194Z,41.79
2018-03-04T04:25:07.182Z,41.89
2018-03-04T04:26:07.170Z,41.99
2018-03-04T04:27:07.167Z,41.82
2018-03-04T04:28:07.144Z,41.72
2018-03-04T04:29:07.133Z,41.82
2018-03-04T04:30:07.124Z,41.79
2018-03-04T04:31:07.109Z,41.82
2018-03-04T04:32:07.111Z,41.91
2018-03-04T04:33:07.084Z,41.91
2018-03-04T04:34:07.072Z,41.82
2018-03-04T04:35:07.060Z,41.62
2018-03-04T04:36:07.046Z,41.62
2018-03-04T04:37:07.035Z,41.50
2018-03-04T04:38:07.035Z,41.60
2018-03-04T04:39:07.011Z,41.79
2018-03-04T04:40:06.997Z,41.62
2018-03-04T04:41:06.985Z,41.62
2018-03-04T04:42:06.974Z,41.79
2018-03-04T04:43:06.977Z,41.82
2018-03-04T04:44:06.948Z,41.62
2018-03-04T04:45:06.944Z,41.53
2018-03-04T04:46:06.924Z,41.82
2018-03-04T04:47:06.912Z,41.79
2018-03-04T04:48:06.902Z,41.79
2018-03-04T04:49:06.907Z,41.82
2018-03-04T04:50:06.874Z,41.89
2018-03-04T04:51:06.862Z,41.89
2018-03-04T04:52:06.851Z,41.89
2018-03-04T04:53:06.839Z,41.89
2018-03-04T04:54:06.826Z,41.60
2018-03-04T04:55:06.826Z,41.82
2018-03-04T04:56:06.802Z,41.53
2018-03-04T04:57:06.790Z,41.62
2018-03-04T04:58:06.777Z,41.70
2018-03-04T04:59:06.765Z,41.79
2018-03-04T05:00:06.765Z,41.72
2018-03-04T05:01:06.741Z,41.70
2018-03-04T05:02:06.729Z,41.91
2018-03-04T05:03:06.716Z,41.72
2018-03-04T05:04:06.703Z,41.89
2018-03-04T05:05:06.702Z,41.70
2018-03-04T05:06:06.678Z,41.79
2018-03-04T05:07:06.666Z,41.79
2018-03-04T05:08:06.655Z,41.79
2018-03-04T05:09:06.645Z,41.79
2018-03-04T05:10:06.674Z,41.70
2018-03-04T05:11:06.633Z,41.89
2018-03-04T05:12:06.605Z,41.70
2018-03-04T05:13:06.592Z,41.79
2018-03-04T05:14:06.581Z,41.89
2018-03-04T05:15:06.568Z,41.70
2018-03-04T05:16:06.555Z,41.70
2018-03-04T05:17:06.556Z,41.70
2018-03-04T05:18:06.531Z,41.70
2018-03-04T05:19:06.519Z,41.89
2018-03-04T05:20:06.506Z,41.79
2018-03-04T05:21:06.495Z,41.89
2018-03-04T05:22:06.496Z,41.79
2018-03-04T05:23:06.471Z,41.79
2018-03-04T05:24:06.457Z,41.99
2018-03-04T05:25:06.451Z,41.99
2018-03-04T05:26:06.433Z,41.79
2018-03-04T05:27:06.421Z,42.08
2018-03-04T05:28:06.416Z,41.99
2018-03-04T05:29:06.395Z,41.89
2018-03-04T05:30:06.384Z,41.99
2018-03-04T05:31:06.376Z,41.91
2018-03-04T05:32:06.359Z,41.62
2018-03-04T05:33:06.362Z,41.72
2018-03-04T05:34:06.334Z,41.82
2018-03-04T05:35:06.323Z,41.53
2018-03-04T05:36:06.309Z,41.43
2018-03-04T05:37:06.297Z,41.53
2018-03-04T05:38:06.285Z,41.62
2018-03-04T05:39:06.286Z,41.43
2018-03-04T05:40:06.260Z,41.53
2018-03-04T05:41:06.253Z,41.43
2018-03-04T05:42:06.236Z,41.43
2018-03-04T05:43:06.224Z,41.55
2018-03-04T05:44:06.226Z,41.64
2018-03-04T05:45:06.201Z,41.74
2018-03-04T05:46:06.187Z,41.74
2018-03-04T05:47:06.175Z,41.55
2018-03-04T05:48:06.162Z,41.55
2018-03-04T05:49:06.150Z,41.35
2018-03-04T05:50:06.148Z,40.97
2018-03-04T05:51:06.126Z,40.97
2018-03-04T05:52:06.115Z,40.88
2018-03-04T05:53:06.101Z,40.97
2018-03-04T05:54:06.091Z,40.88
2018-03-04T05:55:06.092Z,40.78
2018-03-04T05:56:06.065Z,41.06
2018-03-04T05:57:06.053Z,40.99
2018-03-04T05:58:06.041Z,40.99
2018-03-04T05:59:06.030Z,40.99
2018-03-04T06:00:06.031Z,41.08
2018-03-04T06:01:06.053Z,40.99
2018-03-04T06:02:05.998Z,40.99
2018-03-04T06:03:05.981Z,40.99
2018-03-04T06:04:05.969Z,41.08
2018-03-04T06:05:05.956Z,40.99
2018-03-04T06:06:05.955Z,40.99
2018-03-04T06:07:05.933Z,41.38
2018-03-04T06:08:05.921Z,41.76
2018-03-04T06:09:05.909Z,41.86
2018-03-04T06:10:05.897Z,41.76
2018-03-04T06:11:05.901Z,41.76
2018-03-04T06:12:05.872Z,41.47
2018-03-04T06:13:05.861Z,41.08
2018-03-04T06:14:05.849Z,41.66
2018-03-04T06:15:05.837Z,41.66
2018-03-04T06:16:05.825Z,41.66
2018-03-04T06:17:05.823Z,41.28
2018-03-04T06:18:05.802Z,41.08
2018-03-04T06:19:05.790Z,40.99
2018-03-04T06:20:05.778Z,40.99
2018-03-04T06:21:05.765Z,40.99
2018-03-04T06:22:05.761Z,40.61
2018-03-04T06:23:05.742Z,40.51
2018-03-04T06:24:05.732Z,40.70
2018-03-04T06:25:05.719Z,40.70
2018-03-04T06:26:05.707Z,40.70
2018-03-04T06:27:05.711Z,40.70
2018-03-04T06:28:05.683Z,40.61
2018-03-04T06:29:05.670Z,40.80
2018-03-04T06:30:05.659Z,40.70
2018-03-04T06:31:05.648Z,40.61
2018-03-04T06:32:05.636Z,40.61
2018-03-04T06:33:05.632Z,40.61
2018-03-04T06:34:05.613Z,40.61
2018-03-04T06:35:05.600Z,40.61
2018-03-04T06:36:05.589Z,40.70
2018-03-04T06:37:05.580Z,40.70
2018-03-04T06:38:05.580Z,40.51
2018-03-04T06:39:05.558Z,40.70
2018-03-04T06:40:05.542Z,40.41
2018-03-04T06:41:05.531Z,40.70
2018-03-04T06:42:05.519Z,40.70
2018-03-04T06:43:05.508Z,41.08
2018-03-04T06:44:05.505Z,40.80
2018-03-04T06:45:05.484Z,40.99
2018-03-04T06:46:05.472Z,41.66
2018-03-04T06:47:05.461Z,41.08
2018-03-04T06:48:05.449Z,40.99
2018-03-04T06:49:05.449Z,40.99
2018-03-04T06:50:05.427Z,41.01
2018-03-04T06:51:05.415Z,41.11
2018-03-04T06:52:05.403Z,40.03
2018-03-04T06:53:05.392Z,39.74
2018-03-04T06:54:05.412Z,39.83
2018-03-04T06:55:05.369Z,40.31
2018-03-04T06:56:05.357Z,40.14
2018-03-04T06:57:05.346Z,40.05
2018-03-04T06:58:05.340Z,40.24
2018-03-04T06:59:05.326Z,40.34
2018-03-04T07:00:05.322Z,40.24
2018-03-04T07:01:05.301Z,40.43
2018-03-04T07:02:05.289Z,40.72
2018-03-04T07:03:05.278Z,40.63
2018-03-04T07:04:05.268Z,40.53
2018-03-04T07:05:05.269Z,40.63
2018-03-04T07:06:05.248Z,41.11
2018-03-04T07:07:05.233Z,41.49
2018-03-04T07:08:05.220Z,41.59
2018-03-04T07:09:05.213Z,41.59
2018-03-04T07:10:05.199Z,42.07
2018-03-04T07:11:05.199Z,41.68
2018-03-04T07:12:05.175Z,41.88
2018-03-04T07:13:05.162Z,41.59
2018-03-04T07:14:05.154Z,40.53
2018-03-04T07:15:05.142Z,39.95
2018-03-04T07:16:05.147Z,40.22
2018-03-04T07:17:05.121Z,39.16
2018-03-04T07:18:05.110Z,40.01
2018-03-04T07:19:05.098Z,39.43
2018-03-04T07:20:05.086Z,40.88
2018-03-04T07:21:05.076Z,42.22
2018-03-04T07:22:05.074Z,41.64
2018-03-04T07:23:05.053Z,41.53
2018-03-04T07:24:05.042Z,41.62
2018-03-04T07:25:05.031Z,41.82
2018-03-04T07:26:05.020Z,42.10
2018-03-04T07:27:05.018Z,42.30
2018-03-04T07:28:04.997Z,42.30
2018-03-04T07:29:04.986Z,42.39
2018-03-04T07:30:04.976Z,41.64
2018-03-04T07:31:04.966Z,40.97
2018-03-04T07:32:04.967Z,40.78
2018-03-04T07:33:04.941Z,40.78
2018-03-04T07:34:04.931Z,40.49
2018-03-04T07:35:04.989Z,40.22
2018-03-04T07:36:04.907Z,39.93
2018-03-04T07:37:04.896Z,40.22
2018-03-04T07:38:04.896Z,40.22
2018-03-04T07:39:04.875Z,40.12
2018-03-04T07:40:04.863Z,40.22
2018-03-04T07:41:04.852Z,40.31
2018-03-04T07:42:04.843Z,40.70
2018-03-04T07:43:04.861Z,40.41
2018-03-04T07:44:04.817Z,40.70
2018-03-04T07:45:04.808Z,40.61
2018-03-04T07:46:04.795Z,40.41
2018-03-04T07:47:04.785Z,39.93
2018-03-04T07:48:04.773Z,39.26
2018-03-04T07:49:04.776Z,39.16
2018-03-04T07:50:04.751Z,39.26
2018-03-04T07:51:04.742Z,39.04
2018-03-04T07:52:04.728Z,39.45
2018-03-04T07:53:04.717Z,38.59
2018-03-04T07:54:04.718Z,39.06
2018-03-04T07:55:04.696Z,38.97
2018-03-04T07:56:04.684Z,39.36
2018-03-04T07:57:04.672Z,39.18
2018-03-04T07:58:04.661Z,40.14
2018-03-04T07:59:04.902Z,39.95
2018-03-04T08:00:04.640Z,39.86
2018-03-04T08:01:04.627Z,39.66
2018-03-04T08:02:04.617Z,40.91
2018-03-04T08:03:04.605Z,41.32
2018-03-04T08:04:04.594Z,40.34
2018-03-04T08:05:04.592Z,40.53
2018-03-04T08:06:04.573Z,40.53
2018-03-04T08:07:04.561Z,41.49
2018-03-04T08:08:04.548Z,40.24
2018-03-04T08:09:04.539Z,40.34
2018-03-04T08:10:04.547Z,40.53
2018-03-04T08:11:04.517Z,40.91
2018-03-04T08:12:04.504Z,40.81
2018-03-04T08:13:04.492Z,40.81
2018-03-04T08:14:04.481Z,41.01
2018-03-04T08:15:04.475Z,40.91
2018-03-04T08:16:04.469Z,41.88
2018-03-04T08:17:04.444Z,41.59
2018-03-04T08:18:04.437Z,41.49
2018-03-04T08:19:04.428Z,41.59
2018-03-04T08:20:04.414Z,41.88
2018-03-04T08:21:04.417Z,41.88
2018-03-04T08:22:04.393Z,41.97
2018-03-04T08:23:04.384Z,41.01
2018-03-04T08:24:04.369Z,40.22
2018-03-04T08:25:04.365Z,39.83
2018-03-04T08:26:04.348Z,39.83
2018-03-04T08:27:04.350Z,40.12
2018-03-04T08:28:04.326Z,40.41
2018-03-04T08:29:04.314Z,40.61
2018-03-04T08:30:04.303Z,40.89
2018-03-04T08:31:04.294Z,41.08
2018-03-04T08:32:04.298Z,40.99
2018-03-04T08:33:04.270Z,41.76
2018-03-04T08:34:04.260Z,41.76
2018-03-04T08:35:04.251Z,41.56
2018-03-04T08:36:04.236Z,41.18
2018-03-04T08:37:04.225Z,41.28
2018-03-04T08:38:04.232Z,41.08
2018-03-04T08:39:04.206Z,40.89
2018-03-04T08:40:04.194Z,41.66
2018-03-04T08:41:04.190Z,41.76
2018-03-04T08:42:04.174Z,40.99
2018-03-04T08:43:04.162Z,41.38
2018-03-04T08:44:04.157Z,40.80
2018-03-04T08:45:04.136Z,40.61
2018-03-04T08:46:04.127Z,40.70
2018-03-04T08:47:04.119Z,40.61
2018-03-04T08:48:04.107Z,40.70
2018-03-04T08:49:04.107Z,40.89
2018-03-04T08:50:04.081Z,40.99
2018-03-04T08:51:04.069Z,40.89
2018-03-04T08:52:04.062Z,40.80
2018-03-04T08:53:04.047Z,40.51
2018-03-04T08:54:04.051Z,40.31
2018-03-04T08:55:04.026Z,40.22
2018-03-04T08:56:04.013Z,40.12
2018-03-04T08:57:04.002Z,40.31
2018-03-04T08:58:03.992Z,40.80
2018-03-04T08:59:03.983Z,40.70
2018-03-04T09:00:03.984Z,40.61
2018-03-04T09:01:03.958Z,40.80
2018-03-04T09:02:03.949Z,40.61
2018-03-04T09:03:03.943Z,40.70
2018-03-04T09:04:03.969Z,40.70
2018-03-04T09:05:03.920Z,41.08
2018-03-04T09:06:03.913Z,41.66
2018-03-04T09:07:03.892Z,41.08
2018-03-04T09:08:03.880Z,41.01
2018-03-04T09:09:03.873Z,41.59
2018-03-04T09:10:03.857Z,41.39
2018-03-04T09:11:03.858Z,41.66
2018-03-04T09:12:03.835Z,41.88
2018-03-04T09:13:03.828Z,41.86
2018-03-04T09:14:03.815Z,41.88
2018-03-04T09:15:03.803Z,41.59
2018-03-04T09:16:03.803Z,41.59
2018-03-04T09:17:03.780Z,41.78
2018-03-04T09:18:03.784Z,41.76
2018-03-04T09:19:03.760Z,41.59
2018-03-04T09:20:03.747Z,41.56
2018-03-04T09:21:03.735Z,41.56
2018-03-04T09:22:03.740Z,41.56
2018-03-04T09:23:03.714Z,41.66
2018-03-04T09:24:03.701Z,42.36
2018-03-04T09:25:03.713Z,41.88
2018-03-04T09:26:03.681Z,41.59
2018-03-04T09:27:03.670Z,41.49
2018-03-04T09:28:03.669Z,40.31
2018-03-04T09:29:03.647Z,40.41
2018-03-04T09:30:03.637Z,40.61
2018-03-04T09:31:03.629Z,40.51
2018-03-04T09:32:03.613Z,42.36
2018-03-04T09:33:03.612Z,41.78
2018-03-04T09:34:03.592Z,41.68
2018-03-04T09:35:03.582Z,42.36
2018-03-04T09:36:03.570Z,42.55
2018-03-04T09:37:03.559Z,42.93
2018-03-04T09:38:03.564Z,42.26
2018-03-04T09:39:03.544Z,42.07
2018-03-04T09:40:03.526Z,41.78
2018-03-04T09:41:03.515Z,42.55
2018-03-04T09:42:03.504Z,41.88
2018-03-04T09:43:03.493Z,42.36
2018-03-04T09:44:03.513Z,42.84
2018-03-04T09:45:03.471Z,42.86
2018-03-04T09:46:03.461Z,42.38
2018-03-04T09:47:03.451Z,41.78
2018-03-04T09:48:03.441Z,42.38
2018-03-04T09:49:03.429Z,42.96
2018-03-04T09:50:03.426Z,42.36
2018-03-04T09:51:03.408Z,42.47
2018-03-04T09:52:03.398Z,42.46
2018-03-04T09:53:03.385Z,42.46
2018-03-04T09:54:03.374Z,42.67
2018-03-04T09:55:03.394Z,42.65
2018-03-04T09:56:03.350Z,42.86
2018-03-04T09:57:03.340Z,43.05
2018-03-04T09:58:03.330Z,43.24
2018-03-04T09:59:03.320Z,43.05
2018-03-04T10:00:03.307Z,42.96
2018-03-04T10:01:03.310Z,42.96
2018-03-04T10:02:03.285Z,43.05
2018-03-04T10:03:03.276Z,42.96
2018-03-04T10:04:03.266Z,42.96
2018-03-04T10:05:03.251Z,42.67
2018-03-04T10:06:03.258Z,42.96
2018-03-04T10:07:03.230Z,42.86
2018-03-04T10:08:03.220Z,42.57
2018-03-04T10:09:03.209Z,42.67
2018-03-04T10:10:03.200Z,42.67
2018-03-04T10:11:03.193Z,42.96
2018-03-04T10:12:03.192Z,42.76
2018-03-04T10:13:03.167Z,42.86
2018-03-04T10:14:03.156Z,43.34
2018-03-04T10:15:03.150Z,42.69
2018-03-04T10:16:03.137Z,42.69
2018-03-04T10:17:03.123Z,43.07
2018-03-04T10:18:03.124Z,42.97
2018-03-04T10:19:03.103Z,43.37
2018-03-04T10:20:03.091Z,43.17
2018-03-04T10:21:03.083Z,43.07
2018-03-04T10:22:03.071Z,42.88
2018-03-04T10:23:03.076Z,42.97
2018-03-04T10:24:03.049Z,43.46
2018-03-04T10:25:03.039Z,42.80
2018-03-04T10:26:03.030Z,42.71
2018-03-04T10:27:03.019Z,42.90
2018-03-04T10:28:03.008Z,42.52
2018-03-04T10:29:03.013Z,41.84
2018-03-04T10:30:02.991Z,42.80
2018-03-04T10:31:02.977Z,42.32
2018-03-04T10:32:02.989Z,42.90
2018-03-04T10:33:02.956Z,42.80
2018-03-04T10:34:02.945Z,42.80
2018-03-04T10:35:02.948Z,42.42
2018-03-04T10:36:02.926Z,41.65
2018-03-04T10:37:02.918Z,42.52
2018-03-04T10:38:02.905Z,43.29
2018-03-04T10:39:02.894Z,43.38
2018-03-04T10:40:02.894Z,42.80
2018-03-04T10:41:02.874Z,42.90
2018-03-04T10:42:02.869Z,42.90
2018-03-04T10:43:02.854Z,43.00
2018-03-04T10:44:02.845Z,42.80
2018-03-04T10:45:02.850Z,42.52
2018-03-04T10:46:02.825Z,42.52
2018-03-04T10:47:02.814Z,42.52
2018-03-04T10:48:02.814Z,42.42
2018-03-04T10:49:02.793Z,43.19
2018-03-04T10:50:02.785Z,43.19
2018-03-04T10:51:02.788Z,42.80
2018-03-04T10:52:02.761Z,42.90
2018-03-04T10:53:02.754Z,43.10
2018-03-04T10:54:02.742Z,43.96
2018-03-04T10:55:02.735Z,43.19
2018-03-04T10:56:02.726Z,43.48
2018-03-04T10:57:02.762Z,43.29
2018-03-04T10:58:02.701Z,43.77
2018-03-04T10:59:02.691Z,44.54
2018-03-04T11:00:02.680Z,43.77
2018-03-04T11:01:02.672Z,43.67
2018-03-04T11:02:02.674Z,43.96
2018-03-04T11:03:02.650Z,43.38
2018-03-04T11:04:02.641Z,43.38
2018-03-04T11:05:02.630Z,42.11
2018-03-04T11:06:02.619Z,41.63
2018-03-04T11:07:02.625Z,40.95
2018-03-04T11:08:02.599Z,41.14
2018-03-04T11:09:02.590Z,41.44
2018-03-04T11:10:02.578Z,41.82
2018-03-04T11:11:02.569Z,40.95
2018-03-04T11:12:02.575Z,42.40
2018-03-04T11:13:02.549Z,40.95
2018-03-04T11:14:02.539Z,41.34
2018-03-04T11:15:02.528Z,41.61
2018-03-04T11:16:02.517Z,41.71
2018-03-04T11:17:02.507Z,41.80
2018-03-04T11:18:02.514Z,41.71
2018-03-04T11:19:02.487Z,41.71
2018-03-04T11:20:02.477Z,42.09
2018-03-04T11:21:02.466Z,41.99
2018-03-04T11:22:02.456Z,41.80
2018-03-04T11:23:02.446Z,42.09
2018-03-04T11:24:02.445Z,42.86
2018-03-04T11:25:02.439Z,41.80
2018-03-04T11:26:02.415Z,41.71
2018-03-04T11:27:02.406Z,41.61
2018-03-04T11:28:02.398Z,41.80
2018-03-04T11:29:02.636Z,41.63
2018-03-04T11:30:02.375Z,41.80
2018-03-04T11:31:02.363Z,41.71
2018-03-04T11:32:02.356Z,41.51
2018-03-04T11:33:02.343Z,41.41
2018-03-04T11:34:02.338Z,41.61
2018-03-04T11:35:02.338Z,41.51
2018-03-04T11:36:02.312Z,41.61
2018-03-04T11:37:02.301Z,41.72
2018-03-04T11:38:02.291Z,41.61
2018-03-04T11:39:02.282Z,41.61
2018-03-04T11:40:02.274Z,41.61
2018-03-04T11:41:02.270Z,41.80
2018-03-04T11:42:02.250Z,41.13
2018-03-04T11:43:02.239Z,41.41
2018-03-04T11:44:02.228Z,40.94
2018-03-04T11:45:02.218Z,41.72
2018-03-04T11:46:02.224Z,41.72
2018-03-04T11:47:02.198Z,41.32
2018-03-04T11:48:02.187Z,41.63
2018-03-04T11:49:02.176Z,41.63
2018-03-04T11:50:02.173Z,41.53
2018-03-04T11:51:02.156Z,41.92
2018-03-04T11:52:02.159Z,42.02
2018-03-04T11:53:02.136Z,42.11
2018-03-04T11:54:02.126Z,41.82
2018-03-04T11:55:02.115Z,41.92
2018-03-04T11:56:02.111Z,42.02
2018-03-04T11:57:02.116Z,41.92
2018-03-04T11:58:02.079Z,42.11
2018-03-04T11:59:02.072Z,41.92
2018-03-04T12:00:02.062Z,42.30
2018-03-04T12:01:02.051Z,42.11
2018-03-04T12:02:02.042Z,41.82
2018-03-04T12:03:02.047Z,42.11
2018-03-04T12:04:02.020Z,42.02
2018-03-04T12:05:02.015Z,41.63
2018-03-04T12:06:02.001Z,42.11
2018-03-04T12:07:01.991Z,41.82
2018-03-04T12:08:01.979Z,41.92
2018-03-04T12:09:01.981Z,42.11
2018-03-04T12:10:01.958Z,42.02
2018-03-04T12:11:01.949Z,41.99
2018-03-04T12:12:01.936Z,42.38
2018-03-04T12:13:01.928Z,42.47
2018-03-04T12:14:01.957Z,42.09
2018-03-04T12:15:01.908Z,42.09
2018-03-04T12:16:01.896Z,42.09
2018-03-04T12:17:01.886Z,42.28
2018-03-04T12:18:01.877Z,42.38
2018-03-04T12:19:01.889Z,43.17
2018-03-04T12:20:01.900Z,42.40
2018-03-04T12:21:01.845Z,42.02
2018-03-04T12:22:01.834Z,42.02
2018-03-04T12:23:01.828Z,41.82
2018-03-04T12:24:01.817Z,41.72
2018-03-04T12:25:01.804Z,41.53
2018-03-04T12:26:01.806Z,41.75
2018-03-04T12:27:01.782Z,41.17
2018-03-04T12:28:01.772Z,41.65
2018-03-04T12:29:01.765Z,41.84
2018-03-04T12:30:01.752Z,41.84
2018-03-04T12:31:01.752Z,41.17
2018-03-04T12:32:01.736Z,40.88
2018-03-04T12:33:01.720Z,40.97
2018-03-04T12:34:01.713Z,40.69
2018-03-04T12:35:01.704Z,40.99
2018-03-04T12:36:01.692Z,40.70
2018-03-04T12:37:01.714Z,40.90
2018-03-04T12:38:01.674Z,40.61
2018-03-04T12:39:01.661Z,40.80
2018-03-04T12:40:01.658Z,40.80
2018-03-04T12:41:01.640Z,40.51
2018-03-04T12:42:01.631Z,40.80
2018-03-04T12:43:01.637Z,40.70
2018-03-04T12:44:01.612Z,41.09
2018-03-04T12:45:01.603Z,41.02
2018-03-04T12:46:01.594Z,40.61
2018-03-04T12:47:01.583Z,40.70
2018-03-04T12:48:01.584Z,40.99
2018-03-04T12:49:01.564Z,40.72
2018-03-04T12:50:01.554Z,40.80
2018-03-04T12:51:01.544Z,40.72
2018-03-04T12:52:01.531Z,40.82